Time;durP1;ratioP1;P1;durP2;ratioP2;P2;SDS_P1;SDS_P2;PMS_P1;PMS_P2;Temp;Humidity;BMP_temperature;BMP_pressure;BME280_temperature;BME280_humidity;BME280_pressure;Samples;Min_cycle;Max_cycle;Signal;HPM_P1;HPM_P2
2022/01/07 00:01:06;;;;;;;5.97;3.15;;;;;;;-1.74;70.72;100948.81;4435733;31;20169;-72
2022/01/07 00:03:34;;;;;;;8.52;3.70;;;;;;;-1.75;70.92;100947.94;4437351;32;20081;-72
2022/01/07 00:06:01;;;;;;;8.63;3.25;;;;;;;-1.78;71.12;100946.91;4437247;31;20123;-72
2022/01/07 00:08:29;;;;;;;3.72;2.00;;;;;;;-1.76;71.23;100955.63;4437347;31;20468;-72
2022/01/07 00:10:57;;;;;;;6.40;2.53;;;;;;;-1.74;71.11;100962.63;4437430;31;20113;-72
2022/01/07 00:13:25;;;;;;;5.65;2.50;;;;;;;-1.81;71.49;100970.00;4437488;31;20140;-72
2022/01/07 00:15:54;;;;;;;6.12;2.60;;;;;;;-1.85;71.76;100970.69;4437312;32;20120;-72
2022/01/07 00:18:23;;;;;;;8.40;2.90;;;;;;;-1.97;72.23;100971.88;4437125;31;20169;-72
2022/01/07 00:20:52;;;;;;;4.82;2.80;;;;;;;-1.98;72.35;100974.38;4437397;31;20862;-72
2022/01/07 00:23:20;;;;;;;3.60;2.15;;;;;;;-2.01;72.57;100975.13;4437302;32;20097;-72
2022/01/07 00:25:48;;;;;;;4.70;2.87;;;;;;;-1.99;72.45;100968.31;4437211;31;20157;-72
2022/01/07 00:28:17;;;;;;;5.95;2.58;;;;;;;-2.01;72.74;100969.09;4437360;32;20458;-72
2022/01/07 00:30:45;;;;;;;10.93;2.92;;;;;;;-2.12;73.19;100955.66;4437394;31;20337;-72
2022/01/07 00:33:13;;;;;;;7.85;2.87;;;;;;;-2.11;73.19;100961.72;4437304;32;20476;-72
2022/01/07 00:35:41;;;;;;;7.20;2.85;;;;;;;-2.16;73.52;100961.47;4437116;31;20396;-72
2022/01/07 00:38:08;;;;;;;6.90;2.10;;;;;;;-2.24;73.92;100965.38;4437172;31;20534;-72
2022/01/07 00:40:36;;;;;;;9.48;2.87;;;;;;;-2.23;74.00;100967.12;4437108;31;20098;-72
2022/01/07 00:43:03;;;;;;;3.65;2.87;;;;;;;-2.33;74.40;100963.25;4437020;32;20089;-72
2022/01/07 00:45:32;;;;;;;6.35;2.83;;;;;;;-2.35;74.70;100961.38;4437099;32;20119;-72
2022/01/07 00:47:59;;;;;;;6.15;2.70;;;;;;;-2.38;74.99;100961.25;4436853;31;20128;-72
2022/01/07 00:50:29;;;;;;;8.30;3.12;;;;;;;-2.44;75.26;100951.47;4436960;31;20466;-72
2022/01/07 00:52:56;;;;;;;5.95;2.87;;;;;;;-2.38;75.08;100958.66;4436906;31;20081;-72
2022/01/07 00:55:26;;;;;;;6.35;2.62;;;;;;;-2.35;75.02;100945.91;4437144;32;20089;-72
2022/01/07 00:57:54;;;;;;;7.40;2.50;;;;;;;-2.40;75.28;100953.44;4437175;31;20565;-72
2022/01/07 01:00:23;;;;;;;5.25;2.92;;;;;;;-2.44;75.52;100957.56;4436841;31;20609;-72
2022/01/07 01:02:51;;;;;;;6.03;2.55;;;;;;;-2.42;75.61;100955.03;4436823;32;20191;-72
2022/01/07 01:05:19;;;;;;;4.25;2.28;;;;;;;-2.47;75.95;100954.81;4436823;32;20390;-72
2022/01/07 01:07:46;;;;;;;7.80;3.85;;;;;;;-2.39;75.80;100954.31;4436655;31;20377;-72
2022/01/07 01:10:16;;;;;;;7.35;3.83;;;;;;;-2.43;75.90;100954.16;4436685;32;20137;-72
2022/01/07 01:12:44;;;;;;;8.13;2.95;;;;;;;-2.50;76.32;100965.00;4436555;32;20719;-72
2022/01/07 01:15:15;;;;;;;10.00;3.42;;;;;;;-2.45;76.25;100948.03;4436695;32;20431;-72
2022/01/07 01:17:42;;;;;;;5.82;3.22;;;;;;;-2.43;76.32;100954.16;4436521;31;20176;-72
2022/01/07 01:20:11;;;;;;;7.55;3.85;;;;;;;-2.40;76.27;100953.44;4436614;31;20131;-72
2022/01/07 01:22:39;;;;;;;7.35;4.12;;;;;;;-2.38;76.25;100962.13;4436656;32;20089;-72
2022/01/07 01:25:07;;;;;;;10.82;3.60;;;;;;;-2.47;76.62;100954.81;4436588;31;20457;-72
2022/01/07 01:27:35;;;;;;;6.55;3.28;;;;;;;-2.47;76.80;100970.31;4436622;32;20499;-72
2022/01/07 01:30:05;;;;;;;8.25;3.50;;;;;;;-2.45;76.58;100975.53;4436552;32;20128;-72
2022/01/07 01:32:32;;;;;;;7.72;3.97;;;;;;;-2.43;76.61;100968.75;4436573;32;20420;-72
2022/01/07 01:34:59;;;;;;;9.55;4.55;;;;;;;-2.36;76.28;100964.78;4436533;31;20081;-72
2022/01/07 01:37:27;;;;;;;6.87;3.55;;;;;;;-2.42;76.33;100963.66;4436483;32;20472;-72
2022/01/07 01:39:54;;;;;;;7.03;3.55;;;;;;;-2.49;76.73;100968.44;4436456;32;20108;-72
2022/01/07 01:42:22;;;;;;;8.82;3.67;;;;;;;-2.48;76.56;100968.50;4436472;31;20157;-72
2022/01/07 01:44:49;;;;;;;8.63;3.10;;;;;;;-2.56;77.03;100975.00;4436552;31;20084;-72
2022/01/07 01:47:16;;;;;;;6.53;2.65;;;;;;;-2.49;76.66;100976.19;4436405;32;20093;-72
2022/01/07 01:49:43;;;;;;;7.40;3.42;;;;;;;-2.52;76.76;100978.59;4436358;32;20701;-72
2022/01/07 01:52:10;;;;;;;7.12;3.40;;;;;;;-2.51;76.74;100989.03;4436391;32;20077;-72
2022/01/07 01:54:38;;;;;;;6.68;3.83;;;;;;;-2.59;76.94;100987.72;4436471;32;20587;-72
2022/01/07 01:57:05;;;;;;;4.57;2.67;;;;;;;-2.77;77.80;100989.37;4436326;31;20431;-72
2022/01/07 01:59:32;;;;;;;5.07;2.37;;;;;;;-2.76;78.07;100984.28;4436316;32;20126;-72
2022/01/07 02:02:00;;;;;;;5.97;2.87;;;;;;;-2.70;77.63;100994.03;4436242;31;20093;-72
2022/01/07 02:04:29;;;;;;;3.97;2.78;;;;;;;-2.71;77.58;100998.31;4436397;31;20164;-72
2022/01/07 02:06:57;;;;;;;5.80;2.62;;;;;;;-2.65;77.42;100997.72;4436140;32;20094;-72
2022/01/07 02:09:32;;;;;;;7.70;2.85;;;;;;;-2.49;76.46;100989.97;4436190;32;20532;-72
2022/01/07 02:12:00;;;;;;;8.32;2.90;;;;;;;-2.43;76.20;100995.44;4436234;32;20138;-72
2022/01/07 02:14:28;;;;;;;7.68;2.75;;;;;;;-2.54;76.35;101006.94;4436314;31;20109;-73
2022/01/07 02:16:55;;;;;;;5.93;2.40;;;;;;;-2.74;77.13;101010.19;4436227;32;20458;-72
2022/01/07 02:19:22;;;;;;;6.32;2.70;;;;;;;-2.71;77.03;101008.62;4436123;32;20104;-72
2022/01/07 02:21:49;;;;;;;5.22;2.67;;;;;;;-2.61;76.68;100999.69;4436167;31;20100;-72
2022/01/07 02:24:16;;;;;;;6.30;3.00;;;;;;;-2.64;76.56;100999.53;4435589;31;20424;-72
2022/01/07 02:26:47;;;;;;;7.22;2.78;;;;;;;-2.77;76.90;101012.59;4436070;32;20145;-72
2022/01/07 02:29:14;;;;;;;6.25;3.08;;;;;;;-3.06;78.08;101019.69;4436179;32;20123;-73
2022/01/07 02:31:41;;;;;;;7.50;2.75;;;;;;;-3.01;78.15;101022.50;4435950;32;20161;-72
2022/01/07 02:34:08;;;;;;;4.50;2.47;;;;;;;-3.02;78.33;101016.47;4436150;32;20084;-73
2022/01/07 02:36:35;;;;;;;6.22;2.85;;;;;;;-3.04;78.21;101019.75;4435945;32;20096;-72
2022/01/07 02:39:03;;;;;;;6.70;3.33;;;;;;;-3.03;78.28;101019.87;4435911;31;20130;-72
2022/01/07 02:41:31;;;;;;;9.80;3.97;;;;;;;-3.25;79.16;101028.16;4435943;32;20105;-73
2022/01/07 02:43:58;;;;;;;5.85;3.45;;;;;;;-3.31;79.50;101032.97;4436012;32;20161;-72
2022/01/07 02:46:25;;;;;;;6.20;3.40;;;;;;;-3.46;80.45;101038.19;4435796;32;20486;-72
2022/01/07 02:48:53;;;;;;;6.40;2.67;;;;;;;-3.45;80.33;101034.78;4435843;32;20105;-72
2022/01/07 02:51:20;;;;;;;8.50;2.80;;;;;;;-3.30;80.07;101026.13;4435880;32;20112;-72
2022/01/07 02:53:47;;;;;;;6.53;2.50;;;;;;;-3.33;79.80;101036.25;4435807;31;20109;-72
2022/01/07 02:56:35;;;;;;;7.72;3.15;;;;;;;-3.43;80.46;101030.63;4435624;32;20478;-72
2022/01/07 02:59:04;;;;;;;9.95;3.12;;;;;;;-3.36;79.92;101034.38;4435744;32;20785;-72
2022/01/07 03:01:32;;;;;;;8.80;3.25;;;;;;;-3.16;79.06;101027.75;4435716;32;20735;-73
2022/01/07 03:04:00;;;;;;;7.18;2.87;;;;;;;-3.23;78.98;101015.34;4435620;32;20553;-72
2022/01/07 03:06:27;;;;;;;7.45;3.15;;;;;;;-3.39;80.21;101029.97;4435535;32;20097;-72
2022/01/07 03:08:55;;;;;;;5.75;3.08;;;;;;;-3.40;80.28;101035.91;4435599;32;20124;-72
2022/01/07 03:11:22;;;;;;;5.95;2.97;;;;;;;-3.29;79.80;101044.22;4435793;32;20112;-72
2022/01/07 03:13:49;;;;;;;6.55;2.97;;;;;;;-3.27;79.42;101039.19;4435666;31;20120;-72
2022/01/07 03:16:17;;;;;;;7.25;2.80;;;;;;;-3.32;79.91;101045.75;4435420;31;20089;-72
2022/01/07 03:18:44;;;;;;;6.00;2.72;;;;;;;-3.07;78.23;101032.50;4435659;32;20161;-72
2022/01/07 03:21:12;;;;;;;5.87;2.70;;;;;;;-2.98;77.63;101044.19;4435433;32;20115;-72
2022/01/07 03:23:40;;;;;;;10.35;2.70;;;;;;;-3.21;78.37;101050.72;4435689;31;20081;-73
2022/01/07 03:26:08;;;;;;;7.78;2.70;;;;;;;-3.28;78.55;101043.44;4435324;32;20834;-72
2022/01/07 03:28:37;;;;;;;4.37;2.62;;;;;;;-3.28;78.43;101046.03;4435307;31;20117;-73
2022/01/07 03:31:05;;;;;;;6.18;3.20;;;;;;;-3.10;77.75;101043.53;4435347;32;20082;-72
2022/01/07 03:33:32;;;;;;;13.68;3.75;;;;;;;-2.86;76.97;101051.69;4435341;31;20131;-71
2022/01/07 03:35:59;;;;;;;7.60;3.60;;;;;;;-2.77;76.50;101049.59;4436919;32;20201;-71
2022/01/07 03:38:27;;;;;;;8.65;3.40;;;;;;;-3.04;77.21;101049.03;4437628;32;20096;-71
2022/01/07 03:40:54;;;;;;;7.03;3.25;;;;;;;-3.75;80.16;101051.13;4437689;31;20080;-71
2022/01/07 03:43:22;;;;;;;8.43;3.10;;;;;;;-3.89;81.02;101058.97;4437620;31;20098;-71
2022/01/07 03:45:49;;;;;;;9.73;3.40;;;;;;;-3.77;80.54;101055.31;4437539;32;20436;-71
2022/01/07 03:48:17;;;;;;;6.65;3.17;;;;;;;-3.61;79.90;101057.91;4437427;31;20783;-71
2022/01/07 03:50:44;;;;;;;7.28;3.42;;;;;;;-3.43;78.97;101060.63;4437946;31;20085;-71
2022/01/07 03:53:11;;;;;;;5.18;3.03;;;;;;;-3.44;78.58;101061.44;4437561;32;20117;-71
2022/01/07 03:55:38;;;;;;;8.65;3.50;;;;;;;-3.85;80.22;101052.31;4437694;31;20425;-71
2022/01/07 03:58:06;;;;;;;6.43;3.28;;;;;;;-3.92;80.99;101043.34;4437464;31;20185;-71
2022/01/07 04:00:39;;;;;;;5.95;2.92;;;;;;;-3.80;80.92;101042.25;4437492;32;20085;-71
2022/01/07 04:03:10;;;;;;;7.32;3.00;;;;;;;-3.87;80.31;101046.16;4437404;32;20093;-71
2022/01/07 04:05:37;;;;;;;6.30;3.45;;;;;;;-3.87;80.56;101049.63;4437462;32;20093;-71
2022/01/07 04:08:06;;;;;;;8.20;3.50;;;;;;;-3.74;79.84;101048.62;4437446;32;20116;-71
2022/01/07 04:10:34;;;;;;;6.78;2.85;;;;;;;-3.40;78.23;101048.78;4437406;32;20474;-71
2022/01/07 04:13:01;;;;;;;5.22;3.00;;;;;;;-3.66;78.79;101047.37;4437360;31;20089;-71
2022/01/07 04:15:29;;;;;;;9.82;3.28;;;;;;;-3.84;79.20;101048.94;4437301;32;20090;-71
2022/01/07 04:17:57;;;;;;;10.80;3.00;;;;;;;-3.99;79.77;101064.41;4437379;31;20464;-71
2022/01/07 04:20:28;;;;;;;10.30;3.20;;;;;;;-4.12;80.24;101061.91;4437310;31;20127;-71
2022/01/07 04:22:56;;;;;;;3.53;2.78;;;;;;;-3.95;80.02;101056.03;4437283;32;20505;-71
2022/01/07 04:25:24;;;;;;;4.80;2.42;;;;;;;-3.86;79.50;101060.81;4437168;32;20227;-71
2022/01/07 04:27:58;;;;;;;7.28;2.92;;;;;;;-3.59;78.33;101053.75;4437221;32;20127;-71
2022/01/07 04:30:30;;;;;;;8.38;2.75;;;;;;;-3.57;77.58;101052.12;4437323;32;20140;-71
2022/01/07 04:33:01;;;;;;;7.22;2.37;;;;;;;-3.94;78.37;101065.53;4437228;32;20089;-71
2022/01/07 04:35:29;;;;;;;7.57;3.05;;;;;;;-4.00;78.97;101066.84;4437051;31;20423;-71
2022/01/07 04:37:57;;;;;;;10.88;3.58;;;;;;;-3.90;78.61;101064.91;4436877;32;20096;-71
2022/01/07 04:40:24;;;;;;;8.15;3.35;;;;;;;-3.94;78.78;101069.78;4436948;31;20077;-71
2022/01/07 04:42:52;;;;;;;14.55;3.83;;;;;;;-4.06;79.24;101070.00;4437809;32;20127;-71
2022/01/07 04:45:19;;;;;;;8.15;3.90;;;;;;;-4.04;79.50;101059.78;4438098;31;20132;-71
2022/01/07 04:47:48;;;;;;;15.02;6.18;;;;;;;-3.67;78.26;101057.59;4437270;32;20145;-71
2022/01/07 04:50:21;;;;;;;17.52;6.30;;;;;;;-3.91;78.42;101073.44;4437847;31;20444;-71
2022/01/07 04:52:49;;;;;;;12.65;5.75;;;;;;;-4.10;79.03;101070.59;4437676;32;20141;-71
2022/01/07 04:55:22;;;;;;;9.40;4.25;;;;;;;-3.70;78.79;101070.31;4437671;32;20135;-71
2022/01/07 04:57:50;;;;;;;9.82;3.78;;;;;;;-3.68;78.19;101073.84;4422923;32;20165;-71
2022/01/07 05:00:20;;;;;;;9.35;4.22;;;;;;;-3.92;78.99;101075.94;4437004;31;20115;-71
2022/01/07 05:02:48;;;;;;;13.98;4.00;;;;;;;-3.86;79.05;101068.53;4436953;32;20399;-71
2022/01/07 05:05:15;;;;;;;12.05;4.18;;;;;;;-3.68;77.96;101061.84;4436995;32;20185;-71
2022/01/07 05:07:42;;;;;;;7.05;3.72;;;;;;;-3.93;78.26;101064.72;4436832;32;20149;-71
2022/01/07 05:10:13;;;;;;;7.40;3.62;;;;;;;-4.16;79.12;101068.56;4436821;31;20417;-71
2022/01/07 05:12:42;;;;;;;10.10;3.60;;;;;;;-4.29;78.91;101062.62;4436867;32;20404;-71
2022/01/07 05:15:12;;;;;;;8.68;3.62;;;;;;;-4.45;79.23;101068.53;4436786;32;20157;-71
2022/01/07 05:17:40;;;;;;;10.70;3.97;;;;;;;-4.29;78.57;101062.62;4436333;32;20208;-71
2022/01/07 05:20:07;;;;;;;7.62;2.85;;;;;;;-4.20;78.14;101066.63;4436625;31;20097;-71
2022/01/07 05:22:35;;;;;;;15.65;4.25;;;;;;;-4.16;78.24;101059.97;4436686;32;20115;-71
2022/01/07 05:25:04;;;;;;;8.15;3.53;;;;;;;-4.20;78.32;101073.44;4436556;31;20096;-71
2022/01/07 05:27:32;;;;;;;7.47;3.80;;;;;;;-4.26;78.48;101066.25;4429558;32;20101;-71
2022/01/07 05:29:59;;;;;;;12.80;3.87;;;;;;;-4.07;78.08;101069.88;4436615;32;20081;-71
2022/01/07 05:32:26;;;;;;;8.13;3.75;;;;;;;-4.19;78.04;101076.09;4436480;32;20116;-71
2022/01/07 05:34:53;;;;;;;12.32;4.47;;;;;;;-4.34;79.66;101076.09;4436576;32;20138;-71
2022/01/07 05:37:21;;;;;;;16.08;4.18;;;;;;;-4.13;79.08;101073.00;4436653;32;20093;-71
2022/01/07 05:39:48;;;;;;;14.85;4.80;;;;;;;-4.35;79.64;101082.06;4436551;32;20134;-71
2022/01/07 05:42:15;;;;;;;13.38;5.00;;;;;;;-4.53;80.45;101078.38;4436286;32;20135;-71
2022/01/07 05:44:42;;;;;;;11.32;4.75;;;;;;;-4.68;81.08;101085.16;4436502;32;20104;-71
2022/01/07 05:47:09;;;;;;;11.65;4.03;;;;;;;-4.71;80.75;101082.41;4436400;32;20112;-71
2022/01/07 05:49:37;;;;;;;13.50;3.78;;;;;;;-4.45;79.97;101074.59;4436296;32;20081;-71
2022/01/07 05:52:06;;;;;;;12.57;3.75;;;;;;;-4.33;78.86;101075.28;4436276;32;20120;-71
2022/01/07 05:54:33;;;;;;;9.63;3.55;;;;;;;-4.59;79.45;101083.16;4436296;32;20128;-71
2022/01/07 05:57:00;;;;;;;13.20;4.22;;;;;;;-4.71;79.57;101084.97;4436337;32;20148;-71
2022/01/07 05:59:33;;;;;;;21.02;5.60;;;;;;;-4.48;78.83;101079.53;4435159;32;20168;-71
2022/01/07 06:02:01;;;;;;;15.77;4.87;;;;;;;-4.29;78.80;101096.06;4436270;32;20132;-71
2022/01/07 06:04:28;;;;;;;18.70;4.28;;;;;;;-4.40;78.50;101090.28;4436248;32;20100;-73
2022/01/07 06:06:55;;;;;;;13.65;4.47;;;;;;;-4.30;78.40;101091.72;4436138;32;20089;-73
2022/01/07 06:09:22;;;;;;;17.90;5.32;;;;;;;-4.26;78.14;101097.13;4436014;32;20201;-73
2022/01/07 06:11:50;;;;;;;15.88;4.82;;;;;;;-4.67;79.45;101110.06;4435379;32;20164;-71
2022/01/07 06:14:17;;;;;;;21.42;5.53;;;;;;;-4.66;79.64;101096.44;4429376;32;20165;-71
2022/01/07 06:19:03;;;;;;;12.75;5.87;;;;;;;-4.03;78.32;101095.00;4498134;31;259920;-70
2022/01/07 06:21:31;;;;;;;15.90;5.32;;;;;;;-4.03;78.32;101095.00;4495685;31;20104;-70
2022/01/07 06:23:58;;;;;;;15.57;5.97;;;;;;;-4.58;78.84;101111.53;4497530;31;20088;-70
2022/01/07 06:26:25;;;;;;;16.23;5.75;;;;;;;-4.66;79.25;101111.87;4496751;31;20088;-70
2022/01/07 06:28:52;;;;;;;11.88;4.85;;;;;;;-4.93;81.04;101117.09;4497565;31;20170;-70
2022/01/07 06:31:19;;;;;;;15.70;5.55;;;;;;;-4.84;80.45;101121.87;4497297;31;20523;-70
2022/01/07 06:33:47;;;;;;;18.15;6.72;;;;;;;-5.03;80.96;101119.00;4497352;31;20110;-70
2022/01/07 06:36:14;;;;;;;16.12;5.87;;;;;;;-4.90;80.54;101117.28;4497054;31;20626;-70
2022/01/07 06:38:41;;;;;;;13.77;5.10;;;;;;;-4.93;79.92;101122.22;4495585;31;20138;-70
2022/01/07 06:41:08;;;;;;;20.60;5.62;;;;;;;-4.84;79.46;101129.59;4496164;31;20435;-70
2022/01/07 06:43:36;;;;;;;30.37;13.00;;;;;;;-4.71;79.11;101136.41;4495123;31;20160;-70
2022/01/07 06:46:03;;;;;;;22.15;7.07;;;;;;;-4.75;79.67;101131.87;4480085;31;20457;-70
2022/01/07 06:48:30;;;;;;;14.32;6.70;;;;;;;-4.76;80.34;101135.25;4480111;31;20160;-70
2022/01/07 06:50:57;;;;;;;19.77;5.90;;;;;;;-4.71;80.07;101144.12;4480063;31;20163;-70
2022/01/07 06:53:24;;;;;;;13.73;5.68;;;;;;;-4.49;78.79;101136.00;4481278;31;20376;-70
2022/01/07 06:55:59;;;;;;;18.12;5.62;;;;;;;-4.76;79.64;101140.38;4481672;31;20091;-70
2022/01/07 06:58:27;;;;;;;20.75;6.07;;;;;;;-4.64;79.83;101138.56;4481467;31;20455;-70
2022/01/07 07:00:55;;;;;;;27.08;7.22;;;;;;;-4.26;78.70;101134.84;4481283;31;20167;-70
2022/01/07 07:03:22;;;;;;;180.05;70.18;;;;;;;-4.46;78.99;101138.78;4481371;31;20092;-70
2022/01/07 07:05:50;;;;;;;167.57;68.32;;;;;;;-4.59;79.25;101135.47;4481484;31;20118;-70
2022/01/07 07:08:17;;;;;;;69.05;28.05;;;;;;;-4.59;79.81;101139.75;4481394;31;20096;-70
2022/01/07 07:10:44;;;;;;;59.45;20.45;;;;;;;-4.55;79.46;101143.38;4481359;31;20126;-70
2022/01/07 07:13:11;;;;;;;35.13;13.93;;;;;;;-4.29;78.68;101135.53;4481227;31;20188;-70
2022/01/07 07:15:38;;;;;;;39.22;10.80;;;;;;;-4.16;78.29;101139.72;4481014;31;20108;-70
2022/01/07 07:18:06;;;;;;;19.80;7.30;;;;;;;-4.13;78.58;101151.09;4490683;31;20536;-70
2022/01/07 07:20:33;;;;;;;31.65;7.87;;;;;;;-3.92;77.59;101145.44;4496961;31;20167;-71
2022/01/07 07:23:00;;;;;;;17.20;6.45;;;;;;;-3.97;78.22;101155.44;4497048;31;20451;-71
2022/01/07 07:25:27;;;;;;;16.60;6.75;;;;;;;-3.97;77.79;101158.00;4492693;31;20499;-71
2022/01/07 07:27:55;;;;;;;12.70;5.68;;;;;;;-3.90;77.50;101152.44;4485891;31;20122;-73
2022/01/07 07:30:22;;;;;;;20.20;6.07;;;;;;;-3.65;76.78;101146.13;4471893;31;20092;-72
2022/01/07 07:32:52;;;;;;;10.43;5.82;;;;;;;-3.78;77.34;101154.84;4471799;31;20719;-73
2022/01/07 07:37:50;;;;;;;16.12;6.15;;;;;;;-3.42;76.12;101148.31;4471636;31;20556;-73
2022/01/07 07:40:17;;;;;;;11.85;5.78;;;;;;;-3.61;77.22;101150.66;4471614;31;20498;-73
2022/01/07 07:42:45;;;;;;;18.75;6.70;;;;;;;-3.47;77.78;101159.16;4471718;31;20183;-72
2022/01/07 07:45:15;;;;;;;14.77;6.28;;;;;;;-3.01;76.29;101147.16;4471746;31;20104;-72
2022/01/07 07:47:42;;;;;;;19.35;7.00;;;;;;;-2.99;76.37;101160.13;4471570;31;20126;-72
2022/01/07 07:50:14;;;;;;;15.52;6.47;;;;;;;-3.12;78.09;101166.28;4471609;32;20089;-71
2022/01/07 07:52:41;;;;;;;15.63;7.10;;;;;;;-2.93;76.91;101151.06;4471461;31;20161;-72
2022/01/07 07:55:09;;;;;;;18.42;8.27;;;;;;;-2.77;77.39;101160.50;4471681;31;20157;-73
2022/01/07 07:57:36;;;;;;;24.95;8.27;;;;;;;-2.69;77.44;101159.19;4471050;31;20115;-73
2022/01/07 08:00:05;;;;;;;25.05;10.25;;;;;;;-2.44;76.51;101156.25;4471635;31;20122;-72
2022/01/07 08:02:39;;;;;;;24.27;8.70;;;;;;;-2.34;76.42;101161.88;4471486;31;20685;-73
2022/01/07 08:05:07;;;;;;;30.58;10.27;;;;;;;-2.35;76.27;101170.44;4471471;31;20110;-73
2022/01/07 08:07:34;;;;;;;33.40;9.95;;;;;;;-2.23;75.44;101164.22;4471484;31;20127;-73
2022/01/07 08:10:02;;;;;;;26.50;9.65;;;;;;;-2.14;75.96;101160.34;4471449;31;20101;-74
2022/01/07 08:12:51;;;;;;;22.55;8.95;;;;;;;-2.05;76.52;101174.62;4471523;31;20217;-74
2022/01/07 08:18:03;;;;;;;28.48;11.98;;;;;;;-1.97;76.21;101173.31;4485361;31;20135;-72
2022/01/07 08:20:32;;;;;;;33.60;11.98;;;;;;;-1.84;74.26;101172.22;4487111;31;20095;-73
2022/01/07 08:22:59;;;;;;;25.25;10.30;;;;;;;-1.73;74.10;101172.78;4486901;31;20133;-73
2022/01/07 08:25:26;;;;;;;26.70;10.00;;;;;;;-1.71;73.76;101178.91;4486953;31;20175;-73
2022/01/07 08:27:56;;;;;;;16.92;9.02;;;;;;;-1.54;73.09;101175.47;4478067;31;20127;-73
2022/01/07 08:30:26;;;;;;;23.02;8.82;;;;;;;-1.51;73.44;101175.63;4471385;31;20522;-73
2022/01/07 08:35:39;;;;;;;37.65;12.25;;;;;;;-1.34;72.80;101173.88;4471324;31;20135;-71
2022/01/07 08:38:06;;;;;;;18.50;9.05;;;;;;;-1.35;72.21;101178.94;4471264;31;20089;-71
2022/01/07 08:40:34;;;;;;;20.92;7.55;;;;;;;-1.32;72.59;101179.09;4473856;31;20224;-71
2022/01/07 08:43:01;;;;;;;18.33;8.35;;;;;;;-1.12;71.88;101167.16;4477897;31;20092;-71
2022/01/07 08:45:29;;;;;;;20.92;7.62;;;;;;;-0.93;69.85;101167.19;4470899;32;20172;-71
2022/01/07 08:47:56;;;;;;;28.08;9.05;;;;;;;-0.82;69.93;101172.84;4470832;31;20089;-71
2022/01/07 08:50:23;;;;;;;19.90;7.97;;;;;;;-0.80;70.21;101171.25;4471215;32;20092;-71
2022/01/07 08:52:52;;;;;;;19.27;8.55;;;;;;;-0.62;69.79;101185.03;4471180;32;20144;-70
2022/01/07 08:55:19;;;;;;;22.05;7.60;;;;;;;-0.74;69.16;101177.59;4471150;31;20089;-71
2022/01/07 08:57:47;;;;;;;25.45;8.27;;;;;;;-0.58;69.38;101179.16;4471115;32;20240;-70
2022/01/07 09:00:15;;;;;;;23.95;7.50;;;;;;;-0.38;69.46;101184.38;4469382;31;20096;-70
2022/01/07 09:02:42;;;;;;;28.10;6.68;;;;;;;-0.11;67.35;101188.16;4470096;31;20088;-71
2022/01/07 09:05:09;;;;;;;19.27;7.03;;;;;;;-0.10;66.51;101189.09;4471015;31;20173;-70
2022/01/07 09:07:36;;;;;;;18.30;7.78;;;;;;;0.06;66.33;101188.03;4470781;31;20093;-71
2022/01/07 09:10:04;;;;;;;21.37;6.12;;;;;;;0.13;65.85;101177.09;4470833;31;20104;-71
2022/01/07 09:12:31;;;;;;;11.55;5.47;;;;;;;0.15;65.73;101181.56;4471058;32;20131;-70
2022/01/07 09:14:59;;;;;;;12.82;5.03;;;;;;;0.44;63.52;101172.41;4470899;31;20109;-72
2022/01/07 09:17:26;;;;;;;10.57;4.68;;;;;;;0.50;63.48;101168.31;4475915;31;20119;-71
2022/01/07 09:19:53;;;;;;;13.18;5.05;;;;;;;0.63;61.66;101161.06;4495488;31;20103;-71
2022/01/07 09:22:21;;;;;;;14.75;4.37;;;;;;;0.67;60.74;101160.41;4486669;31;20084;-71
2022/01/07 09:24:48;;;;;;;8.93;5.07;;;;;;;0.68;59.29;101159.56;4486609;31;20100;-72
2022/01/07 09:27:15;;;;;;;9.68;4.00;;;;;;;0.87;59.83;101158.56;4486742;31;20088;-71
2022/01/07 09:29:42;;;;;;;20.05;4.00;;;;;;;0.98;61.09;101160.72;4494649;31;20141;-71
2022/01/07 09:32:10;;;;;;;9.35;4.00;;;;;;;1.07;61.79;101155.91;4498899;31;20791;-70
2022/01/07 09:34:37;;;;;;;13.35;5.10;;;;;;;1.18;60.53;101149.41;4502511;31;20148;-70
2022/01/07 09:37:05;;;;;;;16.15;5.40;;;;;;;1.32;59.74;101161.19;4488899;31;20123;-70
2022/01/07 09:39:33;;;;;;;17.45;4.57;;;;;;;1.44;59.28;101155.56;4495479;31;20099;-73
2022/01/07 09:42:00;;;;;;;12.57;5.28;;;;;;;1.49;58.78;101141.06;4487289;31;20096;-71
2022/01/07 09:44:28;;;;;;;11.93;4.80;;;;;;;1.61;59.09;101151.87;4486563;31;20753;-71
2022/01/07 09:46:56;;;;;;;13.32;4.50;;;;;;;1.72;57.47;101143.59;4495206;31;20123;-73
2022/01/07 09:49:24;;;;;;;9.68;4.25;;;;;;;1.76;57.78;101138.56;4486311;31;20473;-72
2022/01/07 09:51:51;;;;;;;13.80;4.25;;;;;;;1.82;57.06;101135.31;4485607;31;20478;-70
2022/01/07 09:54:18;;;;;;;12.70;4.75;;;;;;;1.95;55.43;101131.44;4485681;31;20123;-71
2022/01/07 09:56:45;;;;;;;11.00;4.93;;;;;;;2.13;56.19;101122.53;4485993;31;20119;-71
2022/01/07 09:59:13;;;;;;;12.77;4.62;;;;;;;2.37;57.40;101119.88;4485448;31;20176;-70
2022/01/07 10:01:57;;;;;;;14.90;4.00;;;;;;;2.35;55.51;101118.94;4485600;31;20081;-70
2022/01/07 10:04:26;;;;;;;8.60;4.25;;;;;;;2.39;53.82;101115.59;4485617;31;20132;-70
2022/01/07 10:07:09;;;;;;;10.30;4.97;;;;;;;2.62;53.40;101110.28;4485950;31;20085;-70
2022/01/07 10:09:39;;;;;;;8.10;4.45;;;;;;;2.67;52.66;101105.22;4485769;31;20096;-71
2022/01/07 10:12:07;;;;;;;8.13;3.83;;;;;;;2.87;52.57;101109.34;4485907;31;20179;-72
2022/01/07 10:14:36;;;;;;;11.02;3.95;;;;;;;2.97;51.55;101089.66;4486710;31;20100;-72
2022/01/07 10:17:04;;;;;;;21.30;8.80;;;;;;;2.90;51.01;101098.09;4498539;31;20191;-72
2022/01/07 10:19:32;;;;;;;26.85;9.57;;;;;;;2.80;52.07;101104.78;4488392;31;20096;-72
2022/01/07 10:22:02;;;;;;;10.13;4.68;;;;;;;2.74;50.94;101091.56;4492904;31;20088;-70
2022/01/07 10:24:30;;;;;;;11.90;4.05;;;;;;;2.92;51.86;101096.44;4491369;31;20175;-70
2022/01/07 10:27:14;;;;;;;8.07;4.05;;;;;;;3.08;52.36;101094.34;4492826;31;20471;-71
2022/01/07 10:29:43;;;;;;;21.17;8.18;;;;;;;3.17;50.60;101085.03;4498878;31;20120;-71
2022/01/07 10:32:21;;;;;;;11.38;4.47;;;;;;;3.54;50.99;101082.66;4488926;31;20095;-71
2022/01/07 10:35:14;;;;;;;13.25;3.05;;;;;;;4.27;48.59;101075.00;4490204;31;20107;-71
2022/01/07 10:37:59;;;;;;;7.12;2.92;;;;;;;5.48;45.67;101070.75;4490073;31;20113;-72
2022/01/07 10:40:34;;;;;;;11.07;2.80;;;;;;;6.42;42.48;101070.69;4485688;31;20083;-72
2022/01/07 10:43:16;;;;;;;6.20;3.40;;;;;;;7.35;43.19;101057.16;4485572;31;20115;-72
2022/01/07 10:45:53;;;;;;;5.68;3.10;;;;;;;7.76;39.25;101059.38;4490992;31;20122;-72
2022/01/07 10:48:34;;;;;;;2.27;2.00;;;;;;;8.37;39.22;101054.66;4495503;31;20160;-71
2022/01/07 10:51:07;;;;;;;4.22;2.40;;;;;;;8.52;36.68;101049.59;4484828;31;20436;-71
2022/01/07 10:53:35;;;;;;;4.05;2.75;;;;;;;9.06;37.24;101058.66;4492154;31;20084;-72
2022/01/07 10:56:08;;;;;;;4.07;2.67;;;;;;;10.51;33.13;101049.34;4485334;31;20140;-71
2022/01/07 10:58:52;;;;;;;2.90;1.83;;;;;;;9.43;33.09;101047.41;4482033;31;20104;-72
2022/01/07 11:01:19;;;;;;;4.00;2.37;;;;;;;8.90;36.05;101048.06;4499695;31;20111;-72
2022/01/07 11:03:52;;;;;;;7.22;2.37;;;;;;;9.26;33.34;101050.00;4496856;31;20083;-72
2022/01/07 11:06:21;;;;;;;3.92;2.15;;;;;;;9.16;32.84;101038.56;4501164;31;20118;-73
2022/01/07 11:08:50;;;;;;;11.43;2.65;;;;;;;9.58;33.95;101034.31;4487089;31;20168;-72
2022/01/07 11:11:25;;;;;;;6.22;2.70;;;;;;;10.34;32.67;101033.53;4494462;31;20096;-72
2022/01/07 11:13:52;;;;;;;4.53;2.30;;;;;;;10.24;33.58;101019.47;4501233;31;20079;-72
2022/01/07 11:16:19;;;;;;;7.95;2.70;;;;;;;10.48;31.09;101015.97;4491532;31;20091;-72
2022/01/07 11:18:49;;;;;;;4.43;2.72;;;;;;;10.60;31.13;101019.44;4495744;31;20096;-71
2022/01/07 11:21:18;;;;;;;4.60;2.35;;;;;;;10.61;34.53;101013.31;4487519;31;20831;-73
2022/01/07 11:23:46;;;;;;;5.80;3.15;;;;;;;11.06;32.88;101008.78;4501421;31;20087;-72
2022/01/07 11:26:16;;;;;;;9.70;3.10;;;;;;;11.28;31.95;101010.47;4502979;31;20122;-72
2022/01/07 11:29:02;;;;;;;3.08;2.70;;;;;;;11.01;31.24;101007.03;4501869;31;20092;-72
2022/01/07 11:31:30;;;;;;;4.37;2.25;;;;;;;11.40;30.41;101001.59;4493498;31;20157;-71
2022/01/07 11:34:19;;;;;;;3.40;2.35;;;;;;;10.98;29.84;101009.69;4495886;31;20083;-71
2022/01/07 11:36:46;;;;;;;5.40;2.92;;;;;;;11.31;30.58;100997.25;4493103;31;20673;-71
2022/01/07 11:39:14;;;;;;;4.22;2.78;;;;;;;11.39;32.16;101006.00;4499051;31;20107;-71